createdAt,value
2018-08-17T05:52:04.741Z,15
2018-08-17T05:52:24.893Z,15
2018-08-17T05:52:45.031Z,15
2018-08-17T05:53:05.242Z,20
2018-08-17T05:53:25.398Z,20
2018-08-17T05:53:45.520Z,20
2018-08-17T05:54:05.684Z,20
2018-08-17T05:54:25.840Z,20
2018-08-17T05:54:45.977Z,20
2018-08-17T05:55:06.141Z,20
2018-08-17T05:55:26.299Z,20
2018-08-17T05:55:46.442Z,20
2018-08-17T05:56:06.596Z,20
2018-08-17T05:56:26.766Z,20
2018-08-17T05:56:47.147Z,20
2018-08-17T05:57:07.204Z,20
2018-08-17T05:57:27.342Z,20
2018-08-17T05:57:47.492Z,20
2018-08-17T05:58:07.644Z,20
2018-08-17T05:58:27.779Z,20
2018-08-17T05:58:47.927Z,20
2018-08-17T05:59:08.789Z,20
2018-08-17T05:59:28.976Z,20
2018-08-17T05:59:49.110Z,20
2018-08-17T06:00:09.262Z,20
2018-08-17T06:00:29.427Z,20
2018-08-17T06:00:49.581Z,20
2018-08-17T06:01:09.699Z,20
2018-08-17T06:01:29.852Z,20
2018-08-17T06:01:50.054Z,20
2018-08-17T06:02:10.200Z,20
2018-08-17T06:02:30.352Z,20
2018-08-17T06:02:50.617Z,20
2018-08-17T06:03:10.855Z,20
2018-08-17T06:03:31.041Z,20
2018-08-17T06:03:51.229Z,20
2018-08-17T06:04:11.424Z,20
2018-08-17T06:04:31.577Z,20
2018-08-17T06:04:51.752Z,20
2018-08-17T06:05:11.902Z,20
2018-08-17T06:05:32.072Z,20
2018-08-17T06:05:52.385Z,20
2018-08-17T06:06:12.607Z,20
2018-08-17T06:06:32.772Z,20
2018-08-17T06:06:52.948Z,20
2018-08-17T06:07:13.080Z,20
2018-08-17T06:07:33.252Z,20
2018-08-17T06:07:53.429Z,20
2018-08-17T06:08:13.567Z,20
2018-08-17T06:08:33.809Z,20
2018-08-17T06:08:53.939Z,20
2018-08-17T06:09:14.087Z,20
2018-08-17T06:09:34.214Z,20
2018-08-17T06:09:54.387Z,20
2018-08-17T06:10:14.966Z,20
2018-08-17T06:10:36.005Z,20
2018-08-17T06:10:56.190Z,20
2018-08-17T06:11:16.558Z,20
2018-08-17T06:11:36.715Z,20
2018-08-17T06:11:56.875Z,20
2018-08-17T06:12:17.050Z,20
2018-08-17T06:12:37.208Z,20
2018-08-17T06:12:57.349Z,20
2018-08-17T06:13:17.520Z,20
2018-08-17T06:13:37.698Z,20
2018-08-17T06:13:57.862Z,20
2018-08-17T06:14:18.045Z,20
2018-08-17T06:14:38.281Z,20
2018-08-17T06:14:58.445Z,20
2018-08-17T06:15:18.575Z,20
2018-08-17T06:15:38.742Z,20
2018-08-17T06:15:58.877Z,20
2018-08-17T06:16:19.054Z,20
2018-08-17T06:16:39.164Z,20
2018-08-17T06:16:59.336Z,20
2018-08-17T06:17:19.482Z,20
2018-08-17T06:17:39.656Z,20
2018-08-17T06:17:59.790Z,20
2018-08-17T06:18:19.919Z,20
2018-08-17T06:18:40.088Z,20
2018-08-17T06:19:00.238Z,20
2018-08-17T06:19:20.599Z,20
2018-08-17T06:19:40.695Z,20
2018-08-17T06:20:00.868Z,20
2018-08-17T06:20:21.149Z,20
2018-08-17T06:20:41.323Z,20
2018-08-17T06:21:01.497Z,20
2018-08-17T06:21:22.574Z,20
2018-08-17T06:21:42.716Z,20
2018-08-17T06:22:02.880Z,20
2018-08-17T06:22:23.523Z,20
2018-08-17T06:22:43.701Z,20
2018-08-17T06:23:03.846Z,20
2018-08-17T06:23:24.019Z,20
2018-08-17T06:23:44.164Z,20
2018-08-17T06:24:04.324Z,20
2018-08-17T06:24:24.509Z,20
2018-08-17T06:24:44.618Z,20
2018-08-17T06:25:04.741Z,20
2018-08-17T06:25:24.903Z,20
2018-08-17T06:25:46.044Z,20
2018-08-17T06:26:06.228Z,20
2018-08-17T06:26:26.413Z,20
2018-08-17T06:26:46.629Z,20
2018-08-17T06:27:06.780Z,20
2018-08-17T06:27:26.952Z,20
2018-08-17T06:27:47.085Z,20
2018-08-17T06:28:07.243Z,20
2018-08-17T06:28:27.400Z,20
2018-08-17T06:28:47.552Z,20
2018-08-17T06:29:07.726Z,20
2018-08-17T06:29:27.911Z,20
2018-08-17T06:29:48.072Z,20
2018-08-17T06:30:08.237Z,20
2018-08-17T06:30:28.378Z,25
2018-08-17T06:30:48.555Z,25
2018-08-17T06:31:08.728Z,25
2018-08-17T06:31:28.869Z,25
2018-08-17T06:31:49.349Z,25
2018-08-17T06:32:09.746Z,25
2018-08-17T06:32:29.900Z,25
2018-08-17T06:32:50.052Z,25
2018-08-17T06:33:10.261Z,25
2018-08-17T06:33:30.470Z,25
2018-08-17T06:33:50.631Z,25
2018-08-17T06:34:11.591Z,25
2018-08-17T06:34:31.756Z,25
2018-08-17T06:34:51.941Z,25
2018-08-17T06:35:12.133Z,25
2018-08-17T06:35:32.289Z,25
2018-08-17T06:35:52.471Z,25
2018-08-17T06:36:12.779Z,25
2018-08-17T06:36:32.871Z,25
2018-08-17T06:36:53.072Z,25
2018-08-17T06:37:13.292Z,25
2018-08-17T06:37:33.687Z,25
2018-08-17T06:37:53.864Z,25
2018-08-17T06:38:14.023Z,25
2018-08-17T06:38:34.232Z,25
2018-08-17T06:38:54.386Z,25
2018-08-17T06:39:14.563Z,25
2018-08-17T06:39:34.774Z,25
2018-08-17T06:39:54.974Z,25
2018-08-17T06:40:15.233Z,25
2018-08-17T06:40:35.368Z,25
2018-08-17T06:40:55.563Z,25
2018-08-17T06:41:15.725Z,25
2018-08-17T06:41:35.865Z,25
2018-08-17T06:41:56.005Z,25
2018-08-17T06:42:16.159Z,25
2018-08-17T06:42:36.309Z,25
2018-08-17T06:42:56.453Z,25
2018-08-17T06:43:16.613Z,25
2018-08-17T06:43:36.768Z,25
2018-08-17T06:43:56.917Z,25
2018-08-17T06:44:17.044Z,25
2018-08-17T06:44:37.207Z,25
2018-08-17T06:44:57.359Z,25
2018-08-17T06:45:17.481Z,25
2018-08-17T06:45:37.638Z,25
2018-08-17T06:45:57.791Z,25
2018-08-17T06:46:17.973Z,25
2018-08-17T06:46:38.122Z,25
2018-08-17T06:46:58.268Z,25
2018-08-17T06:47:18.429Z,25
2018-08-17T06:47:38.611Z,25
2018-08-17T06:47:58.776Z,25
2018-08-17T06:48:18.942Z,25
2018-08-17T06:48:39.093Z,25
2018-08-17T06:48:59.278Z,25
2018-08-17T06:49:19.421Z,25
2018-08-17T06:49:39.575Z,25
2018-08-17T06:49:59.732Z,25
2018-08-17T06:50:19.864Z,25
2018-08-17T06:50:40.158Z,25
2018-08-17T06:51:00.364Z,25
2018-08-17T06:51:20.526Z,25
2018-08-17T06:51:40.699Z,25
2018-08-17T06:52:00.865Z,25
2018-08-17T06:52:21.024Z,25
2018-08-17T06:52:42.062Z,25
2018-08-17T06:53:02.185Z,25
2018-08-17T06:53:22.330Z,25
2018-08-17T06:53:42.485Z,25
2018-08-17T06:54:02.659Z,25
2018-08-17T06:54:22.825Z,25
2018-08-17T06:54:42.990Z,30
2018-08-17T06:55:03.149Z,30
2018-08-17T06:55:23.295Z,30
2018-08-17T06:55:43.496Z,30
2018-08-17T06:56:03.654Z,30
2018-08-17T06:56:23.806Z,30
2018-08-17T06:56:43.980Z,30
2018-08-17T06:57:04.197Z,30
2018-08-17T06:57:24.323Z,30
2018-08-17T06:57:45.477Z,30
2018-08-17T06:58:05.677Z,30
2018-08-17T06:58:25.823Z,30
2018-08-17T06:58:45.932Z,30
2018-08-17T06:59:06.093Z,30
2018-08-17T06:59:26.232Z,30
2018-08-17T06:59:46.387Z,30
2018-08-17T07:00:06.549Z,30
2018-08-17T07:00:26.704Z,30
2018-08-17T07:00:47.496Z,30
2018-08-17T07:01:09.234Z,30
2018-08-17T07:01:29.348Z,30
2018-08-17T07:01:49.506Z,30
2018-08-17T07:02:09.639Z,30
2018-08-17T07:02:29.822Z,30
2018-08-17T07:02:50.555Z,30
2018-08-17T07:03:10.710Z,30
2018-08-17T07:03:30.930Z,30
2018-08-17T07:03:51.094Z,30
2018-08-17T07:04:11.254Z,30
2018-08-17T07:04:31.433Z,30
2018-08-17T07:04:51.588Z,30
2018-08-17T07:05:12.470Z,30
2018-08-17T07:05:32.629Z,30
2018-08-17T07:05:52.838Z,30
2018-08-17T07:06:12.999Z,30
2018-08-17T07:06:33.991Z,30
2018-08-17T07:06:54.141Z,30
2018-08-17T07:07:14.338Z,30
2018-08-17T07:07:36.351Z,30
2018-08-17T07:07:56.520Z,30
2018-08-17T07:08:16.723Z,30
2018-08-17T07:08:36.982Z,30
2018-08-17T07:08:57.267Z,30
2018-08-17T07:09:17.635Z,30
2018-08-17T07:09:39.491Z,30
2018-08-17T07:10:00.232Z,30
2018-08-17T07:10:20.401Z,30
2018-08-17T07:10:41.760Z,30
2018-08-17T07:11:01.934Z,30
2018-08-17T07:11:22.095Z,30
2018-08-17T07:11:42.869Z,30
2018-08-17T07:12:03.028Z,30
2018-08-17T07:12:23.224Z,30
2018-08-17T07:12:44.698Z,30
2018-08-17T07:13:06.325Z,30
2018-08-17T07:13:26.483Z,30
2018-08-17T07:13:46.648Z,30
2018-08-17T07:14:06.850Z,30
2018-08-17T07:14:26.986Z,30
2018-08-17T07:14:47.163Z,30
2018-08-17T07:15:08.744Z,30
2018-08-17T07:15:29.533Z,30
2018-08-17T07:15:50.586Z,30
2018-08-17T07:16:10.724Z,30
2018-08-17T07:16:32.102Z,30
2018-08-17T07:16:52.238Z,30
2018-08-17T07:17:12.439Z,30
2018-08-17T07:17:33.363Z,30
2018-08-17T07:17:53.768Z,30
2018-08-17T07:18:14.015Z,30
2018-08-17T07:18:34.178Z,30
2018-08-17T07:18:54.325Z,30
2018-08-17T07:19:14.542Z,30
2018-08-17T07:19:34.715Z,30
2018-08-17T07:19:54.880Z,30
2018-08-17T07:20:15.050Z,30
2018-08-17T07:20:36.590Z,30
2018-08-17T07:20:57.243Z,30
2018-08-17T07:21:17.499Z,30
2018-08-17T07:21:37.733Z,30
2018-08-17T07:22:00.001Z,30
2018-08-17T07:22:20.236Z,30
2018-08-17T07:22:40.437Z,30
2018-08-17T07:23:00.617Z,30
2018-08-17T07:23:20.847Z,30
2018-08-17T07:23:42.499Z,35
2018-08-17T07:24:02.652Z,35
2018-08-17T07:24:22.843Z,35
2018-08-17T07:24:44.612Z,35
2018-08-17T07:25:06.009Z,35
2018-08-17T07:25:26.161Z,35
2018-08-17T07:25:46.306Z,35
2018-08-17T07:26:06.480Z,35
2018-08-17T07:26:26.662Z,35
2018-08-17T07:26:46.836Z,35
2018-08-17T07:27:07.031Z,35
2018-08-17T07:27:27.187Z,35
2018-08-17T07:27:47.614Z,35
2018-08-17T07:28:09.279Z,35
2018-08-17T07:28:29.385Z,35
2018-08-17T07:28:49.582Z,30
2018-08-17T07:29:10.327Z,30
2018-08-17T07:29:30.459Z,30
2018-08-17T07:29:51.581Z,30
2018-08-17T07:30:12.340Z,30
2018-08-17T07:30:32.505Z,30
2018-08-17T07:30:52.666Z,30
2018-08-17T07:31:16.564Z,30
2018-08-17T07:31:36.740Z,30
2018-08-17T07:31:56.903Z,30
2018-08-17T07:32:17.808Z,30
2018-08-17T07:32:37.966Z,30
2018-08-17T07:33:00.396Z,30
2018-08-17T07:33:21.388Z,30
2018-08-17T07:33:41.577Z,30
2018-08-17T07:34:01.731Z,30
2018-08-17T07:34:21.882Z,30
2018-08-17T07:34:42.042Z,35
2018-08-17T07:35:03.008Z,35
2018-08-17T07:35:23.152Z,35
2018-08-17T07:35:43.396Z,35
2018-08-17T07:36:04.445Z,30
2018-08-17T07:36:24.607Z,30
2018-08-17T07:36:44.798Z,30
2018-08-17T07:37:04.963Z,30
2018-08-17T07:37:25.126Z,30
2018-08-17T07:37:45.270Z,30
2018-08-17T07:38:05.419Z,30
2018-08-17T07:38:25.606Z,35
2018-08-17T07:38:45.752Z,35
2018-08-17T07:39:05.903Z,35
2018-08-17T07:39:26.083Z,35
2018-08-17T07:39:46.245Z,35
2018-08-17T07:40:06.942Z,30
2018-08-17T07:40:27.085Z,30
2018-08-17T07:40:48.068Z,30
2018-08-17T07:41:08.222Z,35
2018-08-17T07:41:29.212Z,35
2018-08-17T07:41:49.411Z,35
2018-08-17T07:42:10.449Z,35
2018-08-17T07:42:30.670Z,35
2018-08-17T07:42:50.854Z,30
2018-08-17T07:43:10.980Z,30
2018-08-17T07:43:31.167Z,30
2018-08-17T07:43:51.337Z,35
2018-08-17T07:44:11.545Z,35
2018-08-17T07:44:31.809Z,35
2018-08-17T07:44:51.963Z,30
2018-08-17T07:45:12.126Z,35
2018-08-17T07:45:32.296Z,30
2018-08-17T07:45:53.280Z,30
2018-08-17T07:46:13.476Z,30
2018-08-17T07:46:33.633Z,35
2018-08-17T07:46:53.803Z,35
2018-08-17T07:47:13.972Z,35
2018-08-17T07:47:34.106Z,30
2018-08-17T07:47:54.390Z,30
2018-08-17T07:48:16.641Z,30
2018-08-17T07:48:37.192Z,30
2018-08-17T07:48:57.360Z,35
2018-08-17T07:49:18.009Z,35
2018-08-17T07:49:38.215Z,30
2018-08-17T07:49:59.737Z,35
2018-08-17T07:50:19.947Z,35
2018-08-17T07:50:40.111Z,30
2018-08-17T07:51:00.283Z,30
2018-08-17T07:51:20.489Z,35
2018-08-17T07:51:40.661Z,30
2018-08-17T07:52:02.322Z,35
2018-08-17T07:52:23.381Z,35
2018-08-17T07:52:43.559Z,30
2018-08-17T07:53:03.725Z,30
2018-08-17T07:53:23.897Z,30
2018-08-17T07:53:46.434Z,35
2018-08-17T07:54:06.605Z,35
2018-08-17T07:54:26.743Z,35
2018-08-17T07:54:46.920Z,35
2018-08-17T07:55:07.124Z,35
2018-08-17T07:55:27.365Z,35
2018-08-17T07:55:47.533Z,35
2018-08-17T07:56:07.703Z,35
2018-08-17T07:56:27.930Z,35
2018-08-17T07:56:49.004Z,35
2018-08-17T07:57:09.153Z,35
2018-08-17T07:57:30.771Z,30
2018-08-17T07:57:50.960Z,30
2018-08-17T07:58:11.107Z,30
2018-08-17T07:58:31.277Z,30
2018-08-17T07:58:51.519Z,30
2018-08-17T07:59:11.646Z,30
2018-08-17T07:59:32.452Z,30
2018-08-17T07:59:52.618Z,30
2018-08-17T08:00:13.531Z,35
2018-08-17T08:00:33.729Z,35
2018-08-17T08:00:54.535Z,35
2018-08-17T08:01:14.710Z,35
2018-08-17T08:01:34.911Z,35
2018-08-17T08:01:55.047Z,35
2018-08-17T08:02:15.218Z,35
2018-08-17T08:02:36.160Z,35
2018-08-17T08:02:56.370Z,35
2018-08-17T08:03:18.134Z,35
2018-08-17T08:03:38.323Z,35
2018-08-17T08:03:59.405Z,35
2018-08-17T08:04:19.626Z,35
2018-08-17T08:04:39.954Z,35
2018-08-17T08:05:00.160Z,35
2018-08-17T08:05:20.364Z,35
2018-08-17T08:05:40.602Z,35
2018-08-17T08:06:01.836Z,30
2018-08-17T08:06:22.071Z,30
2018-08-17T08:06:42.380Z,30
2018-08-17T08:07:02.581Z,35
2018-08-17T08:07:24.483Z,35
2018-08-17T08:07:44.657Z,35
2018-08-17T08:08:05.762Z,35
2018-08-17T08:08:25.928Z,35
2018-08-17T08:08:46.131Z,35
2018-08-17T08:09:06.356Z,35
2018-08-17T08:09:26.562Z,35
2018-08-17T08:09:47.624Z,35
2018-08-17T08:10:07.794Z,35
2018-08-17T08:10:28.018Z,35
2018-08-17T08:10:48.175Z,35
2018-08-17T08:11:08.422Z,30
2018-08-17T08:11:29.457Z,35
2018-08-17T08:11:49.598Z,35
2018-08-17T08:12:09.767Z,35
2018-08-17T08:12:29.982Z,35
2018-08-17T08:12:50.365Z,35
2018-08-17T08:13:10.688Z,35
2018-08-17T08:13:30.986Z,35
2018-08-17T08:13:52.038Z,35
2018-08-17T08:14:12.228Z,35
2018-08-17T08:14:32.349Z,35
2018-08-17T08:14:53.579Z,35
2018-08-17T08:15:13.835Z,35
2018-08-17T08:15:34.504Z,35
2018-08-17T08:15:54.709Z,35
2018-08-17T08:16:14.910Z,35
2018-08-17T08:16:35.089Z,35
2018-08-17T08:16:55.294Z,35
2018-08-17T08:17:15.571Z,35
2018-08-17T08:17:35.783Z,35
2018-08-17T08:17:55.994Z,35
2018-08-17T08:18:16.272Z,35
2018-08-17T08:18:36.515Z,35
2018-08-17T08:18:56.729Z,35
2018-08-17T08:19:17.215Z,35
2018-08-17T08:19:37.530Z,35
2018-08-17T08:19:57.722Z,35
2018-08-17T08:20:17.969Z,35
2018-08-17T08:20:38.369Z,35
2018-08-17T08:20:58.580Z,35
2018-08-17T08:21:18.869Z,35
2018-08-17T08:21:39.322Z,35
2018-08-17T08:21:59.571Z,35
2018-08-17T08:22:19.745Z,35
2018-08-17T08:22:39.997Z,35
2018-08-17T08:23:00.223Z,35
2018-08-17T08:23:20.445Z,35
2018-08-17T08:23:40.726Z,35
2018-08-17T08:24:00.911Z,35
2018-08-17T08:24:21.281Z,35
2018-08-17T08:24:41.564Z,35
2018-08-17T08:25:01.741Z,35
2018-08-17T08:25:21.942Z,35
2018-08-17T08:25:42.704Z,35
2018-08-17T08:26:02.960Z,35
2018-08-17T08:26:23.149Z,35
2018-08-17T08:26:43.431Z,35
2018-08-17T08:27:03.710Z,35
2018-08-17T08:27:23.890Z,35
2018-08-17T08:27:44.114Z,35
2018-08-17T08:28:04.359Z,35
2018-08-17T08:28:24.695Z,35
2018-08-17T08:28:44.911Z,35
2018-08-17T08:29:05.457Z,35
2018-08-17T08:29:25.651Z,35
2018-08-17T08:29:45.856Z,35
2018-08-17T08:30:06.012Z,35
2018-08-17T08:30:26.168Z,35
2018-08-17T08:30:46.305Z,35
2018-08-17T08:31:06.430Z,30
2018-08-17T08:31:26.658Z,30
2018-08-17T08:31:46.840Z,35
2018-08-17T08:32:07.065Z,35
2018-08-17T08:32:27.244Z,35
2018-08-17T08:32:47.791Z,35
2018-08-17T08:33:07.947Z,35
2018-08-17T08:33:28.182Z,35
2018-08-17T08:33:48.686Z,35
2018-08-17T08:34:08.892Z,35
2018-08-17T08:34:29.094Z,35
2018-08-17T08:34:49.237Z,35
2018-08-17T08:35:09.483Z,35
2018-08-17T08:35:29.648Z,35
2018-08-17T08:35:49.799Z,35
2018-08-17T08:36:10.021Z,35
2018-08-17T08:36:30.278Z,35
2018-08-17T08:36:50.479Z,35
2018-08-17T08:37:10.669Z,35
2018-08-17T08:37:30.865Z,35
2018-08-17T08:37:51.090Z,35
2018-08-17T08:38:11.250Z,35
2018-08-17T08:38:31.453Z,35
2018-08-17T08:38:51.598Z,35
2018-08-17T08:39:11.843Z,35
2018-08-17T08:39:32.036Z,35
2018-08-17T08:39:53.240Z,35
2018-08-17T08:40:13.581Z,30
2018-08-17T08:40:33.752Z,30
2018-08-17T08:40:53.973Z,35
2018-08-17T08:41:14.266Z,35
2018-08-17T08:41:34.502Z,35
2018-08-17T08:41:54.676Z,35
2018-08-17T08:42:14.881Z,35
2018-08-17T08:42:35.037Z,35
2018-08-17T08:42:55.223Z,35
2018-08-17T08:43:15.477Z,35
2018-08-17T08:43:35.648Z,35
2018-08-17T08:43:55.848Z,35
2018-08-17T08:44:16.051Z,35
2018-08-17T08:44:36.264Z,35
2018-08-17T08:44:56.512Z,35
2018-08-17T08:45:16.688Z,35
2018-08-17T08:45:37.043Z,35
2018-08-17T08:45:57.243Z,35
2018-08-17T08:46:17.411Z,35
2018-08-17T08:46:37.632Z,40
2018-08-17T08:46:57.878Z,40
2018-08-17T08:47:18.093Z,35
2018-08-17T08:47:38.490Z,35
2018-08-17T08:47:58.735Z,35
2018-08-17T08:48:19.061Z,35
2018-08-17T08:48:39.319Z,40
2018-08-17T08:48:59.588Z,35
2018-08-17T08:49:19.858Z,35
2018-08-17T08:49:40.165Z,35
2018-08-17T08:50:00.466Z,35
2018-08-17T08:50:20.753Z,35
2018-08-17T08:50:40.981Z,35
2018-08-17T08:51:01.283Z,40
2018-08-17T08:51:22.201Z,35
2018-08-17T08:51:42.499Z,40
2018-08-17T08:52:02.656Z,40
2018-08-17T08:52:22.844Z,40
2018-08-17T08:52:43.091Z,40
2018-08-17T08:53:03.341Z,40
2018-08-17T08:53:23.564Z,40
2018-08-17T08:53:43.750Z,40
2018-08-17T08:54:03.909Z,40
2018-08-17T08:54:24.055Z,40
2018-08-17T08:54:44.256Z,35
2018-08-17T08:55:04.427Z,35
2018-08-17T08:55:24.614Z,35
2018-08-17T08:55:44.779Z,35
2018-08-17T08:56:05.152Z,35
2018-08-17T08:56:25.249Z,35
2018-08-17T08:56:45.434Z,40
2018-08-17T08:57:05.606Z,40
2018-08-17T08:57:25.789Z,40
2018-08-17T08:57:45.976Z,40
2018-08-17T08:58:06.115Z,40
2018-08-17T08:58:26.375Z,40
2018-08-17T08:58:46.530Z,35
2018-08-17T08:59:06.716Z,35
2018-08-17T08:59:26.973Z,35
2018-08-17T08:59:47.165Z,35
2018-08-17T09:00:07.443Z,35
2018-08-17T09:00:28.589Z,35
2018-08-17T09:00:48.760Z,35
2018-08-17T09:01:12.255Z,35
2018-08-17T09:01:32.513Z,35
2018-08-17T09:01:52.652Z,40
2018-08-17T09:02:12.995Z,35
2018-08-17T09:02:33.135Z,35
2018-08-17T09:02:53.324Z,40
2018-08-17T09:03:13.498Z,40
2018-08-17T09:03:33.675Z,40
2018-08-17T09:03:53.830Z,40
2018-08-17T09:04:14.007Z,40
2018-08-17T09:04:34.189Z,40
2018-08-17T09:04:54.436Z,40
2018-08-17T09:05:14.626Z,40
2018-08-17T09:05:34.840Z,40
2018-08-17T09:05:55.044Z,40
2018-08-17T09:06:15.302Z,40
2018-08-17T09:06:35.490Z,40
2018-08-17T09:06:55.663Z,40
2018-08-17T09:07:15.871Z,40
2018-08-17T09:07:36.137Z,40
2018-08-17T09:07:56.310Z,40
2018-08-17T09:08:16.648Z,40
2018-08-17T09:08:36.744Z,40
2018-08-17T09:08:57.022Z,40
2018-08-17T09:09:17.254Z,40
2018-08-17T09:09:37.472Z,40
2018-08-17T09:09:57.719Z,40
2018-08-17T09:10:17.922Z,40
2018-08-17T09:10:38.139Z,40
2018-08-17T09:10:58.298Z,40
2018-08-17T09:11:18.468Z,40
2018-08-17T09:11:38.703Z,40
2018-08-17T09:11:58.927Z,40
2018-08-17T09:12:19.089Z,40
2018-08-17T09:12:39.230Z,40
2018-08-17T09:12:59.420Z,40
2018-08-17T09:13:19.604Z,40
2018-08-17T09:13:39.841Z,40
2018-08-17T09:14:00.023Z,35
2018-08-17T09:14:20.276Z,35
2018-08-17T09:14:40.493Z,35
2018-08-17T09:15:00.667Z,40
2018-08-17T09:15:20.910Z,40
2018-08-17T09:15:41.107Z,40
2018-08-17T09:16:01.277Z,40
2018-08-17T09:16:21.445Z,40
2018-08-17T09:16:41.687Z,40
2018-08-17T09:17:01.870Z,40
2018-08-17T09:17:22.032Z,40
2018-08-17T09:17:43.174Z,40
2018-08-17T09:18:03.358Z,40
2018-08-17T09:18:23.618Z,40
2018-08-17T09:18:43.864Z,40
2018-08-17T09:19:04.171Z,40
2018-08-17T09:19:24.420Z,40
2018-08-17T09:19:44.610Z,40
2018-08-17T09:20:04.849Z,40
2018-08-17T09:20:25.209Z,40
2018-08-17T09:20:45.306Z,40
2018-08-17T09:21:05.468Z,35
2018-08-17T09:21:25.753Z,35
2018-08-17T09:21:45.981Z,35
2018-08-17T09:22:06.190Z,35
2018-08-17T09:22:26.354Z,35
2018-08-17T09:22:46.541Z,35
2018-08-17T09:23:06.794Z,35
2018-08-17T09:23:27.040Z,40
2018-08-17T09:23:47.290Z,40
2018-08-17T09:24:07.473Z,40
2018-08-17T09:24:27.772Z,40
2018-08-17T09:24:48.024Z,40
2018-08-17T09:25:08.242Z,40
2018-08-17T09:25:28.522Z,40
2018-08-17T09:25:48.765Z,40
2018-08-17T09:26:10.604Z,40
2018-08-17T09:26:30.795Z,40
2018-08-17T09:26:50.968Z,40
2018-08-17T09:27:11.191Z,40
2018-08-17T09:27:31.399Z,40
2018-08-17T09:27:51.660Z,40
2018-08-17T09:28:11.890Z,40
2018-08-17T09:28:32.078Z,40
2018-08-17T09:28:52.337Z,40
2018-08-17T09:29:12.632Z,40
2018-08-17T09:29:32.768Z,40
2018-08-17T09:29:52.933Z,35
2018-08-17T09:30:13.278Z,35
2018-08-17T09:30:33.470Z,40
2018-08-17T09:30:53.656Z,35
2018-08-17T09:31:13.877Z,35
2018-08-17T09:31:34.042Z,35
2018-08-17T09:31:54.204Z,40
2018-08-17T09:32:14.474Z,40
2018-08-17T09:32:34.650Z,40
2018-08-17T09:32:54.857Z,40
2018-08-17T09:33:15.059Z,40
2018-08-17T09:33:35.256Z,40
2018-08-17T09:33:55.499Z,40
2018-08-17T09:34:15.741Z,40
2018-08-17T09:34:35.996Z,40
2018-08-17T09:34:56.202Z,40
2018-08-17T09:35:16.372Z,40
2018-08-17T09:35:36.541Z,40
2018-08-17T09:35:56.733Z,35
2018-08-17T09:36:17.529Z,35
2018-08-17T09:36:37.728Z,35
2018-08-17T09:36:57.952Z,35
2018-08-17T09:37:18.191Z,40
2018-08-17T09:37:38.404Z,40
2018-08-17T09:37:58.664Z,40
2018-08-17T09:38:18.828Z,40
2018-08-17T09:38:39.127Z,40
2018-08-17T09:39:00.048Z,40
2018-08-17T09:39:20.296Z,40
2018-08-17T09:39:40.540Z,40
2018-08-17T09:40:00.743Z,40
2018-08-17T09:40:20.993Z,40
2018-08-17T09:40:41.184Z,40
2018-08-17T09:41:01.347Z,40
2018-08-17T09:41:21.503Z,40
2018-08-17T09:41:41.804Z,40
2018-08-17T09:42:01.982Z,40
2018-08-17T09:42:22.228Z,40
2018-08-17T09:42:42.412Z,40
2018-08-17T09:43:02.669Z,35
2018-08-17T09:43:22.864Z,40
2018-08-17T09:43:43.118Z,40
2018-08-17T09:44:03.296Z,40
2018-08-17T09:44:23.505Z,40
2018-08-17T09:44:43.659Z,35
2018-08-17T09:45:03.900Z,40
2018-08-17T09:45:24.061Z,40
2018-08-17T09:45:44.198Z,40
2018-08-17T09:46:04.374Z,40
2018-08-17T09:46:24.641Z,40
2018-08-17T09:46:44.840Z,35
2018-08-17T09:47:05.060Z,35
2018-08-17T09:47:25.331Z,35
2018-08-17T09:47:45.576Z,35
2018-08-17T09:48:05.815Z,35
2018-08-17T09:48:25.954Z,35
2018-08-17T09:48:46.181Z,35
2018-08-17T09:49:06.334Z,35
2018-08-17T09:49:26.521Z,35
2018-08-17T09:49:46.718Z,40
2018-08-17T09:50:06.876Z,35
2018-08-17T09:50:27.111Z,35
2018-08-17T09:50:47.259Z,35
2018-08-17T09:51:07.472Z,35
2018-08-17T09:51:27.825Z,35
2018-08-17T09:51:47.905Z,35
2018-08-17T09:52:08.085Z,35
2018-08-17T09:52:28.318Z,35
2018-08-17T09:52:48.480Z,40
2018-08-17T09:53:08.711Z,40
2018-08-17T09:53:28.857Z,40
2018-08-17T09:53:49.063Z,40
2018-08-17T09:54:09.252Z,40
2018-08-17T09:54:29.427Z,40
2018-08-17T09:54:49.670Z,40
2018-08-17T09:55:09.840Z,40
2018-08-17T09:55:30.123Z,40
2018-08-17T09:55:50.348Z,40
2018-08-17T09:56:10.556Z,40
2018-08-17T09:56:30.861Z,40
2018-08-17T09:56:51.053Z,40
2018-08-17T09:57:11.203Z,40
2018-08-17T09:57:31.412Z,40
2018-08-17T09:57:52.397Z,40
2018-08-17T09:58:12.645Z,40
2018-08-17T09:58:32.808Z,40
2018-08-17T09:58:53.011Z,40
2018-08-17T09:59:13.184Z,40
2018-08-17T09:59:33.379Z,40
2018-08-17T09:59:53.554Z,40
2018-08-17T10:00:13.769Z,40
2018-08-17T10:00:33.968Z,40
2018-08-17T10:00:54.151Z,40
2018-08-17T10:01:14.373Z,40
2018-08-17T10:01:34.607Z,40
2018-08-17T10:01:54.783Z,40
2018-08-17T10:02:14.922Z,40
2018-08-17T10:02:35.117Z,40
2018-08-17T10:02:55.449Z,40
2018-08-17T10:03:15.669Z,40
2018-08-17T10:03:35.938Z,40
2018-08-17T10:03:56.241Z,40
2018-08-17T10:04:16.632Z,40
2018-08-17T10:04:36.783Z,40
2018-08-17T10:04:56.954Z,40
2018-08-17T10:05:17.116Z,40
2018-08-17T10:05:37.295Z,40
2018-08-17T10:05:57.554Z,40
2018-08-17T10:06:17.720Z,40
2018-08-17T10:06:37.894Z,40
2018-08-17T10:06:58.088Z,40
2018-08-17T10:07:18.297Z,40
2018-08-17T10:07:38.556Z,40
2018-08-17T10:07:58.810Z,40
2018-08-17T10:08:18.978Z,40
2018-08-17T10:08:39.197Z,40
2018-08-17T10:08:59.446Z,40
2018-08-17T10:09:19.683Z,40
2018-08-17T10:09:39.886Z,40
2018-08-17T10:10:00.042Z,40
2018-08-17T10:10:20.281Z,40
2018-08-17T10:10:41.284Z,40
2018-08-17T10:11:01.468Z,40
2018-08-17T10:11:21.678Z,40
2018-08-17T10:11:41.844Z,40
2018-08-17T10:12:01.998Z,40
2018-08-17T10:12:22.160Z,40
2018-08-17T10:12:42.311Z,40
2018-08-17T10:13:02.436Z,40
2018-08-17T10:13:22.566Z,40
2018-08-17T10:13:42.724Z,40
2018-08-17T10:14:02.928Z,40
2018-08-17T10:14:23.100Z,40
2018-08-17T10:14:43.265Z,40
2018-08-17T10:15:03.418Z,40
2018-08-17T10:15:23.592Z,40
2018-08-17T10:15:43.839Z,40
2018-08-17T10:16:04.325Z,40
2018-08-17T10:16:24.596Z,40
2018-08-17T10:16:44.835Z,40
2018-08-17T10:17:05.628Z,40
2018-08-17T10:17:25.887Z,40
2018-08-17T10:17:46.137Z,40
2018-08-17T10:18:06.340Z,45
2018-08-17T10:18:26.496Z,45
2018-08-17T10:18:46.659Z,40
2018-08-17T10:19:06.795Z,45
2018-08-17T10:19:26.962Z,40
2018-08-17T10:19:47.168Z,45
2018-08-17T10:20:07.350Z,40
2018-08-17T10:20:27.586Z,40
2018-08-17T10:20:47.949Z,40
2018-08-17T10:21:08.492Z,40
2018-08-17T10:21:28.836Z,40
2018-08-17T10:21:49.299Z,40
2018-08-17T10:22:09.330Z,40
2018-08-17T10:22:29.305Z,40
2018-08-17T10:22:49.458Z,40
2018-08-17T10:23:09.680Z,40
2018-08-17T10:23:29.888Z,40
2018-08-17T10:23:50.057Z,40
2018-08-17T10:24:10.239Z,40
2018-08-17T10:24:30.402Z,40
2018-08-17T10:24:50.602Z,40
2018-08-17T10:25:10.800Z,40
2018-08-17T10:25:30.971Z,40
2018-08-17T10:25:51.211Z,40
2018-08-17T10:26:11.393Z,40
2018-08-17T10:26:31.546Z,40
2018-08-17T10:26:51.733Z,40
2018-08-17T10:27:11.969Z,40
2018-08-17T10:27:32.639Z,40
2018-08-17T10:27:52.871Z,40
2018-08-17T10:28:13.034Z,40
2018-08-17T10:28:33.184Z,40
2018-08-17T11:35:56.767Z,30
2018-08-17T11:36:16.890Z,30
2018-08-17T11:36:37.056Z,35
2018-08-17T11:36:57.212Z,35
2018-08-17T11:37:17.409Z,35
2018-08-17T11:37:37.581Z,45
2018-08-17T11:37:57.782Z,45
2018-08-17T11:38:17.920Z,45
2018-08-17T11:38:38.142Z,45
2018-08-17T11:38:58.326Z,45
2018-08-17T11:39:18.480Z,45
2018-08-17T11:39:38.665Z,45
2018-08-17T11:39:58.904Z,45
2018-08-17T11:40:19.188Z,45
2018-08-17T11:40:39.311Z,45
2018-08-17T11:40:59.565Z,45
2018-08-17T11:41:19.779Z,45
2018-08-17T11:41:39.906Z,45
2018-08-17T11:42:00.067Z,45
2018-08-17T11:42:20.240Z,45
2018-08-17T11:42:40.404Z,45
2018-08-17T11:43:00.552Z,40
2018-08-17T11:43:20.721Z,30
2018-08-17T11:43:40.911Z,45
2018-08-17T11:44:01.069Z,45
2018-08-17T11:44:21.451Z,40
2018-08-17T11:44:41.579Z,30
2018-08-17T11:45:01.734Z,30
2018-08-17T11:45:21.884Z,30
2018-08-17T11:45:42.027Z,30
2018-08-17T11:46:02.228Z,30
2018-08-17T11:46:22.354Z,30
2018-08-17T11:46:42.576Z,30
2018-08-17T11:47:02.750Z,45
2018-08-17T11:47:22.909Z,50
2018-08-17T11:47:43.051Z,35
2018-08-17T11:48:03.291Z,30
2018-08-17T11:48:23.464Z,30